sensor_id;sensor_type;location;lat;lon;timestamp;temperature;humidity
318;DHT22;146;53.448;10.228;2023-12-20T00:01:45;6.30;1.00
318;DHT22;146;53.448;10.228;2023-12-20T00:04:12;6.30;1.00
318;DHT22;146;53.448;10.228;2023-12-20T00:06:42;6.30;1.00
318;DHT22;146;53.448;10.228;2023-12-20T00:09:08;6.20;1.00
318;DHT22;146;53.448;10.228;2023-12-20T00:11:35;6.10;1.00
318;DHT22;146;53.448;10.228;2023-12-20T00:14:03;6.10;1.00
318;DHT22;146;53.448;10.228;2023-12-20T00:16:30;6.20;1.00
318;DHT22;146;53.448;10.228;2023-12-20T00:18:57;6.10;1.00
318;DHT22;146;53.448;10.228;2023-12-20T00:21:24;6.10;1.00
318;DHT22;146;53.448;10.228;2023-12-20T00:23:50;6.10;1.00
318;DHT22;146;53.448;10.228;2023-12-20T00:26:17;6.10;1.00
318;DHT22;146;53.448;10.228;2023-12-20T00:28:44;6.00;1.00
318;DHT22;146;53.448;10.228;2023-12-20T00:31:12;6.00;1.00
318;DHT22;146;53.448;10.228;2023-12-20T00:33:40;6.00;1.00
318;DHT22;146;53.448;10.228;2023-12-20T00:36:09;6.00;1.00
318;DHT22;146;53.448;10.228;2023-12-20T00:38:36;6.00;1.00
318;DHT22;146;53.448;10.228;2023-12-20T00:41:03;5.90;1.00
318;DHT22;146;53.448;10.228;2023-12-20T00:43:30;5.90;1.00
318;DHT22;146;53.448;10.228;2023-12-20T00:45:57;5.90;1.00
318;DHT22;146;53.448;10.228;2023-12-20T00:48:29;5.90;1.00
318;DHT22;146;53.448;10.228;2023-12-20T00:50:59;5.80;1.00
318;DHT22;146;53.448;10.228;2023-12-20T00:53:26;5.80;1.00
318;DHT22;146;53.448;10.228;2023-12-20T00:55:53;5.90;1.00
318;DHT22;146;53.448;10.228;2023-12-20T00:58:20;5.90;1.00
318;DHT22;146;53.448;10.228;2023-12-20T01:00:46;6.00;1.00
318;DHT22;146;53.448;10.228;2023-12-20T01:03:13;6.00;1.00
318;DHT22;146;53.448;10.228;2023-12-20T01:05:48;6.10;1.00
318;DHT22;146;53.448;10.228;2023-12-20T01:08:14;6.20;1.00
318;DHT22;146;53.448;10.228;2023-12-20T01:10:44;6.20;1.00
318;DHT22;146;53.448;10.228;2023-12-20T01:13:12;6.20;1.00
318;DHT22;146;53.448;10.228;2023-12-20T01:15:47;6.20;1.00
318;DHT22;146;53.448;10.228;2023-12-20T01:18:14;6.20;1.00
318;DHT22;146;53.448;10.228;2023-12-20T01:20:41;6.20;1.00
318;DHT22;146;53.448;10.228;2023-12-20T01:23:09;6.30;1.00
318;DHT22;146;53.448;10.228;2023-12-20T01:25:36;6.20;1.00
318;DHT22;146;53.448;10.228;2023-12-20T01:28:04;6.20;1.00
318;DHT22;146;53.448;10.228;2023-12-20T01:30:30;6.20;1.00
318;DHT22;146;53.448;10.228;2023-12-20T01:32:59;6.30;1.00
318;DHT22;146;53.448;10.228;2023-12-20T01:35:29;6.20;1.00
318;DHT22;146;53.448;10.228;2023-12-20T01:56:25;5.80;1.00
318;DHT22;146;53.448;10.228;2023-12-20T01:58:53;5.90;1.00
318;DHT22;146;53.448;10.228;2023-12-20T02:01:20;5.90;1.00
318;DHT22;146;53.448;10.228;2023-12-20T02:03:47;5.80;1.00
318;DHT22;146;53.448;10.228;2023-12-20T02:06:15;5.80;1.00
318;DHT22;146;53.448;10.228;2023-12-20T02:08:42;5.70;1.00
318;DHT22;146;53.448;10.228;2023-12-20T02:11:10;5.70;1.00
318;DHT22;146;53.448;10.228;2023-12-20T02:13:46;5.60;1.00
318;DHT22;146;53.448;10.228;2023-12-20T02:16:13;5.80;1.00
318;DHT22;146;53.448;10.228;2023-12-20T02:18:40;5.90;1.00
318;DHT22;146;53.448;10.228;2023-12-20T02:21:10;5.90;1.00
318;DHT22;146;53.448;10.228;2023-12-20T02:23:41;5.90;1.00
318;DHT22;146;53.448;10.228;2023-12-20T02:26:08;5.80;1.00
318;DHT22;146;53.448;10.228;2023-12-20T02:28:35;5.80;1.00
318;DHT22;146;53.448;10.228;2023-12-20T02:31:02;5.90;1.00
318;DHT22;146;53.448;10.228;2023-12-20T02:33:28;5.80;1.00
318;DHT22;146;53.448;10.228;2023-12-20T02:35:55;5.80;1.00
318;DHT22;146;53.448;10.228;2023-12-20T02:38:22;5.80;1.00
318;DHT22;146;53.448;10.228;2023-12-20T02:40:50;5.70;1.00
318;DHT22;146;53.448;10.228;2023-12-20T02:43:20;5.70;1.00
318;DHT22;146;53.448;10.228;2023-12-20T02:45:47;5.80;1.00
318;DHT22;146;53.448;10.228;2023-12-20T02:48:13;5.80;1.00
318;DHT22;146;53.448;10.228;2023-12-20T02:50:40;5.80;1.00
318;DHT22;146;53.448;10.228;2023-12-20T02:53:07;5.90;1.00
318;DHT22;146;53.448;10.228;2023-12-20T02:55:37;5.90;1.00
318;DHT22;146;53.448;10.228;2023-12-20T02:58:07;5.90;1.00
318;DHT22;146;53.448;10.228;2023-12-20T03:00:34;5.90;1.00
318;DHT22;146;53.448;10.228;2023-12-20T03:03:07;5.80;1.00
318;DHT22;146;53.448;10.228;2023-12-20T03:05:34;5.80;1.00
318;DHT22;146;53.448;10.228;2023-12-20T03:08:01;5.80;1.00
318;DHT22;146;53.448;10.228;2023-12-20T03:10:28;5.80;1.00
318;DHT22;146;53.448;10.228;2023-12-20T03:12:55;5.80;1.00
318;DHT22;146;53.448;10.228;2023-12-20T03:15:23;5.80;1.00
318;DHT22;146;53.448;10.228;2023-12-20T03:17:50;5.80;1.00
318;DHT22;146;53.448;10.228;2023-12-20T03:20:16;5.80;1.00
318;DHT22;146;53.448;10.228;2023-12-20T03:22:43;5.80;1.00
318;DHT22;146;53.448;10.228;2023-12-20T03:25:10;5.80;1.00
318;DHT22;146;53.448;10.228;2023-12-20T03:27:37;5.80;1.00
318;DHT22;146;53.448;10.228;2023-12-20T03:30:06;5.90;1.00
318;DHT22;146;53.448;10.228;2023-12-20T03:32:34;5.90;1.00
318;DHT22;146;53.448;10.228;2023-12-20T03:35:01;5.90;1.00
318;DHT22;146;53.448;10.228;2023-12-20T03:37:28;5.90;1.00
318;DHT22;146;53.448;10.228;2023-12-20T03:39:58;5.90;1.00
318;DHT22;146;53.448;10.228;2023-12-20T03:42:24;5.80;1.00
318;DHT22;146;53.448;10.228;2023-12-20T03:44:51;5.80;1.00
318;DHT22;146;53.448;10.228;2023-12-20T03:47:21;5.80;1.00
318;DHT22;146;53.448;10.228;2023-12-20T03:49:53;5.90;1.00
318;DHT22;146;53.448;10.228;2023-12-20T03:52:19;6.00;1.00
318;DHT22;146;53.448;10.228;2023-12-20T03:54:46;6.00;1.00
318;DHT22;146;53.448;10.228;2023-12-20T03:57:13;6.10;1.00
318;DHT22;146;53.448;10.228;2023-12-20T03:59:46;6.10;1.00
318;DHT22;146;53.448;10.228;2023-12-20T04:02:19;6.00;1.00
318;DHT22;146;53.448;10.228;2023-12-20T04:04:49;6.00;1.00
318;DHT22;146;53.448;10.228;2023-12-20T04:07:17;6.00;1.00
318;DHT22;146;53.448;10.228;2023-12-20T04:09:43;6.00;1.00
318;DHT22;146;53.448;10.228;2023-12-20T04:12:10;6.00;1.00
318;DHT22;146;53.448;10.228;2023-12-20T04:14:37;6.00;1.00
318;DHT22;146;53.448;10.228;2023-12-20T04:17:04;6.00;1.00
318;DHT22;146;53.448;10.228;2023-12-20T04:19:31;5.90;1.00
318;DHT22;146;53.448;10.228;2023-12-20T04:22:03;5.90;1.00
318;DHT22;146;53.448;10.228;2023-12-20T04:24:31;5.90;1.00
318;DHT22;146;53.448;10.228;2023-12-20T04:26:58;6.00;1.00
318;DHT22;146;53.448;10.228;2023-12-20T04:29:25;5.90;1.00
318;DHT22;146;53.448;10.228;2023-12-20T04:31:52;5.90;1.00
318;DHT22;146;53.448;10.228;2023-12-20T04:34:22;6.00;1.00
318;DHT22;146;53.448;10.228;2023-12-20T04:36:49;5.90;1.00
318;DHT22;146;53.448;10.228;2023-12-20T04:39:16;5.90;1.00
318;DHT22;146;53.448;10.228;2023-12-20T04:41:44;5.90;1.00
318;DHT22;146;53.448;10.228;2023-12-20T04:44:13;6.00;1.00
318;DHT22;146;53.448;10.228;2023-12-20T04:46:39;5.90;1.00
318;DHT22;146;53.448;10.228;2023-12-20T04:49:06;6.00;1.00
318;DHT22;146;53.448;10.228;2023-12-20T04:51:33;5.90;1.00
318;DHT22;146;53.448;10.228;2023-12-20T04:54:00;6.00;1.00
318;DHT22;146;53.448;10.228;2023-12-20T04:56:27;6.00;1.00
318;DHT22;146;53.448;10.228;2023-12-20T04:58:55;6.00;1.00
318;DHT22;146;53.448;10.228;2023-12-20T05:01:21;6.00;1.00
318;DHT22;146;53.448;10.228;2023-12-20T05:03:54;6.10;1.00
318;DHT22;146;53.448;10.228;2023-12-20T05:06:24;6.10;1.00
318;DHT22;146;53.448;10.228;2023-12-20T05:08:54;6.00;1.00
318;DHT22;146;53.448;10.228;2023-12-20T05:11:26;6.00;1.00
318;DHT22;146;53.448;10.228;2023-12-20T05:13:55;6.00;1.00
318;DHT22;146;53.448;10.228;2023-12-20T05:16:28;6.10;1.00
318;DHT22;146;53.448;10.228;2023-12-20T05:18:54;6.10;1.00
318;DHT22;146;53.448;10.228;2023-12-20T05:21:21;6.10;1.00
318;DHT22;146;53.448;10.228;2023-12-20T05:23:48;6.00;1.00
318;DHT22;146;53.448;10.228;2023-12-20T05:26:15;6.10;1.00
318;DHT22;146;53.448;10.228;2023-12-20T05:28:48;6.00;1.00
318;DHT22;146;53.448;10.228;2023-12-20T05:31:16;6.10;1.00
318;DHT22;146;53.448;10.228;2023-12-20T05:33:43;6.20;1.00
318;DHT22;146;53.448;10.228;2023-12-20T05:36:10;6.10;1.00
318;DHT22;146;53.448;10.228;2023-12-20T05:38:39;6.00;1.00
318;DHT22;146;53.448;10.228;2023-12-20T05:41:06;6.10;1.00
318;DHT22;146;53.448;10.228;2023-12-20T05:43:32;6.20;1.00
318;DHT22;146;53.448;10.228;2023-12-20T05:45:59;6.20;1.00
318;DHT22;146;53.448;10.228;2023-12-20T05:48:27;6.20;1.00
318;DHT22;146;53.448;10.228;2023-12-20T05:50:57;6.20;1.00
318;DHT22;146;53.448;10.228;2023-12-20T05:53:24;6.20;1.00
318;DHT22;146;53.448;10.228;2023-12-20T05:55:51;6.20;1.00
318;DHT22;146;53.448;10.228;2023-12-20T05:58:18;6.20;1.00
318;DHT22;146;53.448;10.228;2023-12-20T06:00:44;6.30;1.00
318;DHT22;146;53.448;10.228;2023-12-20T06:03:14;6.30;1.00
318;DHT22;146;53.448;10.228;2023-12-20T06:05:42;6.30;1.00
318;DHT22;146;53.448;10.228;2023-12-20T06:08:09;6.30;1.00
318;DHT22;146;53.448;10.228;2023-12-20T06:10:39;6.30;1.00
318;DHT22;146;53.448;10.228;2023-12-20T06:13:15;6.30;1.00
318;DHT22;146;53.448;10.228;2023-12-20T06:15:42;6.30;1.00
318;DHT22;146;53.448;10.228;2023-12-20T06:18:08;6.30;1.00
318;DHT22;146;53.448;10.228;2023-12-20T06:20:38;6.30;1.00
318;DHT22;146;53.448;10.228;2023-12-20T06:23:06;6.40;1.00
318;DHT22;146;53.448;10.228;2023-12-20T06:25:33;6.30;1.00
318;DHT22;146;53.448;10.228;2023-12-20T06:28:00;6.30;1.00
318;DHT22;146;53.448;10.228;2023-12-20T06:30:30;6.20;1.00
318;DHT22;146;53.448;10.228;2023-12-20T06:32:58;6.20;1.00
318;DHT22;146;53.448;10.228;2023-12-20T06:35:28;6.30;1.00
318;DHT22;146;53.448;10.228;2023-12-20T06:37:55;6.30;1.00
318;DHT22;146;53.448;10.228;2023-12-20T06:40:26;6.20;1.00
318;DHT22;146;53.448;10.228;2023-12-20T06:42:56;6.30;1.00
318;DHT22;146;53.448;10.228;2023-12-20T06:45:25;6.30;1.00
318;DHT22;146;53.448;10.228;2023-12-20T06:47:52;6.30;1.00
318;DHT22;146;53.448;10.228;2023-12-20T06:50:20;6.30;1.00
318;DHT22;146;53.448;10.228;2023-12-20T06:52:47;6.30;1.00
318;DHT22;146;53.448;10.228;2023-12-20T06:55:13;6.40;1.00
318;DHT22;146;53.448;10.228;2023-12-20T06:57:42;6.40;1.00
318;DHT22;146;53.448;10.228;2023-12-20T07:00:11;6.30;1.00
318;DHT22;146;53.448;10.228;2023-12-20T07:02:38;6.30;1.00
318;DHT22;146;53.448;10.228;2023-12-20T07:05:11;6.30;1.00
318;DHT22;146;53.448;10.228;2023-12-20T07:07:38;6.30;1.00
318;DHT22;146;53.448;10.228;2023-12-20T07:10:05;6.20;1.00
318;DHT22;146;53.448;10.228;2023-12-20T07:12:33;6.30;1.00
318;DHT22;146;53.448;10.228;2023-12-20T07:15:01;6.30;1.00
318;DHT22;146;53.448;10.228;2023-12-20T07:17:28;6.30;1.00
318;DHT22;146;53.448;10.228;2023-12-20T07:19:55;6.30;1.00
318;DHT22;146;53.448;10.228;2023-12-20T07:22:22;6.30;1.00
318;DHT22;146;53.448;10.228;2023-12-20T07:24:49;6.30;1.00
318;DHT22;146;53.448;10.228;2023-12-20T07:27:17;6.20;1.00
318;DHT22;146;53.448;10.228;2023-12-20T07:29:44;6.20;1.00
318;DHT22;146;53.448;10.228;2023-12-20T07:32:15;6.20;1.00
318;DHT22;146;53.448;10.228;2023-12-20T07:34:45;6.20;1.00
318;DHT22;146;53.448;10.228;2023-12-20T07:37:11;6.20;1.00
318;DHT22;146;53.448;10.228;2023-12-20T07:39:39;6.30;1.00
318;DHT22;146;53.448;10.228;2023-12-20T07:42:06;6.30;1.00
318;DHT22;146;53.448;10.228;2023-12-20T07:44:33;6.30;1.00
318;DHT22;146;53.448;10.228;2023-12-20T07:47:01;6.40;1.00
318;DHT22;146;53.448;10.228;2023-12-20T07:49:30;6.30;1.00
318;DHT22;146;53.448;10.228;2023-12-20T07:51:57;6.30;1.00
318;DHT22;146;53.448;10.228;2023-12-20T07:54:24;6.40;1.00
318;DHT22;146;53.448;10.228;2023-12-20T07:56:51;6.40;1.00
318;DHT22;146;53.448;10.228;2023-12-20T07:59:18;6.40;1.00
318;DHT22;146;53.448;10.228;2023-12-20T08:01:51;6.50;1.00
318;DHT22;146;53.448;10.228;2023-12-20T08:04:18;6.40;1.00
318;DHT22;146;53.448;10.228;2023-12-20T08:06:47;6.50;1.00
318;DHT22;146;53.448;10.228;2023-12-20T08:09:15;6.50;1.00
318;DHT22;146;53.448;10.228;2023-12-20T08:11:45;6.40;1.00
318;DHT22;146;53.448;10.228;2023-12-20T08:14:14;6.40;1.00
318;DHT22;146;53.448;10.228;2023-12-20T08:16:41;6.40;1.00
318;DHT22;146;53.448;10.228;2023-12-20T08:19:09;6.50;1.00
318;DHT22;146;53.448;10.228;2023-12-20T08:21:36;6.50;1.00
318;DHT22;146;53.448;10.228;2023-12-20T08:24:05;6.50;1.00
318;DHT22;146;53.448;10.228;2023-12-20T08:26:32;6.60;1.00
318;DHT22;146;53.448;10.228;2023-12-20T08:28:59;6.60;1.00
318;DHT22;146;53.448;10.228;2023-12-20T08:31:30;6.60;1.00
318;DHT22;146;53.448;10.228;2023-12-20T08:34:00;6.60;1.00
318;DHT22;146;53.448;10.228;2023-12-20T08:36:27;6.60;1.00
318;DHT22;146;53.448;10.228;2023-12-20T08:38:54;6.70;1.00
318;DHT22;146;53.448;10.228;2023-12-20T08:41:24;6.70;1.00
318;DHT22;146;53.448;10.228;2023-12-20T08:43:51;6.80;1.00
318;DHT22;146;53.448;10.228;2023-12-20T08:46:26;6.90;1.00
318;DHT22;146;53.448;10.228;2023-12-20T08:48:56;6.90;1.00
318;DHT22;146;53.448;10.228;2023-12-20T08:51:22;6.90;1.00
318;DHT22;146;53.448;10.228;2023-12-20T08:53:54;7.00;1.00
318;DHT22;146;53.448;10.228;2023-12-20T08:56:30;7.00;1.00
318;DHT22;146;53.448;10.228;2023-12-20T08:58:57;7.00;1.00
318;DHT22;146;53.448;10.228;2023-12-20T09:01:23;7.00;1.00
318;DHT22;146;53.448;10.228;2023-12-20T09:03:50;7.10;1.00
318;DHT22;146;53.448;10.228;2023-12-20T09:06:20;7.20;1.00
318;DHT22;146;53.448;10.228;2023-12-20T09:08:50;7.10;1.00
318;DHT22;146;53.448;10.228;2023-12-20T09:11:17;7.10;1.00
318;DHT22;146;53.448;10.228;2023-12-20T09:13:45;7.00;1.00
318;DHT22;146;53.448;10.228;2023-12-20T09:16:12;6.90;1.00
318;DHT22;146;53.448;10.228;2023-12-20T09:18:41;6.80;1.00
318;DHT22;146;53.448;10.228;2023-12-20T09:21:08;6.80;1.00
318;DHT22;146;53.448;10.228;2023-12-20T09:23:35;6.60;1.00
318;DHT22;146;53.448;10.228;2023-12-20T09:26:02;6.60;1.00
318;DHT22;146;53.448;10.228;2023-12-20T09:28:29;6.40;1.00
318;DHT22;146;53.448;10.228;2023-12-20T09:30:59;6.30;1.00
318;DHT22;146;53.448;10.228;2023-12-20T09:33:26;6.20;1.00
318;DHT22;146;53.448;10.228;2023-12-20T09:35:53;6.10;1.00
318;DHT22;146;53.448;10.228;2023-12-20T09:38:23;6.00;1.00
318;DHT22;146;53.448;10.228;2023-12-20T09:52:18;5.80;1.00
318;DHT22;146;53.448;10.228;2023-12-20T09:54:47;5.90;1.00
318;DHT22;146;53.448;10.228;2023-12-20T09:57:16;5.70;1.00
318;DHT22;146;53.448;10.228;2023-12-20T09:59:43;5.70;1.00
318;DHT22;146;53.448;10.228;2023-12-20T10:02:13;5.70;1.00
318;DHT22;146;53.448;10.228;2023-12-20T10:04:46;5.70;1.00
318;DHT22;146;53.448;10.228;2023-12-20T10:07:13;5.60;1.00
318;DHT22;146;53.448;10.228;2023-12-20T10:09:42;5.60;1.00
318;DHT22;146;53.448;10.228;2023-12-20T10:12:09;5.60;1.00
318;DHT22;146;53.448;10.228;2023-12-20T10:14:39;5.70;1.00
318;DHT22;146;53.448;10.228;2023-12-20T10:17:11;5.80;1.00
318;DHT22;146;53.448;10.228;2023-12-20T10:19:42;5.80;1.00
318;DHT22;146;53.448;10.228;2023-12-20T10:22:10;5.80;1.00
318;DHT22;146;53.448;10.228;2023-12-20T10:24:41;5.70;1.00
318;DHT22;146;53.448;10.228;2023-12-20T10:27:08;5.80;1.00
318;DHT22;146;53.448;10.228;2023-12-20T10:29:41;5.80;1.00
318;DHT22;146;53.448;10.228;2023-12-20T10:32:22;5.80;1.00
318;DHT22;146;53.448;10.228;2023-12-20T10:34:50;5.80;1.00
318;DHT22;146;53.448;10.228;2023-12-20T10:37:17;5.90;1.00
318;DHT22;146;53.448;10.228;2023-12-20T10:39:48;5.90;1.00
318;DHT22;146;53.448;10.228;2023-12-20T10:42:16;5.90;1.00
318;DHT22;146;53.448;10.228;2023-12-20T10:44:43;5.90;1.00
318;DHT22;146;53.448;10.228;2023-12-20T10:47:11;6.00;1.00
318;DHT22;146;53.448;10.228;2023-12-20T10:49:40;5.90;1.00
318;DHT22;146;53.448;10.228;2023-12-20T10:52:09;6.00;1.00
318;DHT22;146;53.448;10.228;2023-12-20T10:54:38;6.00;1.00
318;DHT22;146;53.448;10.228;2023-12-20T10:57:07;6.00;1.00
318;DHT22;146;53.448;10.228;2023-12-20T10:59:36;6.00;1.00
318;DHT22;146;53.448;10.228;2023-12-20T11:02:04;6.00;1.00
318;DHT22;146;53.448;10.228;2023-12-20T11:04:37;6.00;1.00
318;DHT22;146;53.448;10.228;2023-12-20T11:07:15;5.90;1.00
318;DHT22;146;53.448;10.228;2023-12-20T11:09:49;6.00;1.00
318;DHT22;146;53.448;10.228;2023-12-20T11:12:28;6.00;1.00
318;DHT22;146;53.448;10.228;2023-12-20T11:14:59;6.10;1.00
318;DHT22;146;53.448;10.228;2023-12-20T11:17:29;6.10;1.00
318;DHT22;146;53.448;10.228;2023-12-20T11:20:08;6.00;1.00
318;DHT22;146;53.448;10.228;2023-12-20T11:22:38;6.00;1.00
318;DHT22;146;53.448;10.228;2023-12-20T11:25:08;5.90;1.00
318;DHT22;146;53.448;10.228;2023-12-20T11:27:40;5.90;1.00
318;DHT22;146;53.448;10.228;2023-12-20T11:30:08;5.90;1.00
318;DHT22;146;53.448;10.228;2023-12-20T11:32:36;5.90;1.00
318;DHT22;146;53.448;10.228;2023-12-20T11:35:17;6.00;1.00
318;DHT22;146;53.448;10.228;2023-12-20T11:37:46;5.90;1.00
318;DHT22;146;53.448;10.228;2023-12-20T11:40:17;6.00;1.00
318;DHT22;146;53.448;10.228;2023-12-20T11:42:49;6.00;1.00
318;DHT22;146;53.448;10.228;2023-12-20T11:45:18;6.10;1.00
318;DHT22;146;53.448;10.228;2023-12-20T11:47:48;6.10;1.00
318;DHT22;146;53.448;10.228;2023-12-20T11:50:15;6.10;1.00
318;DHT22;146;53.448;10.228;2023-12-20T11:52:45;6.10;1.00
318;DHT22;146;53.448;10.228;2023-12-20T11:55:12;6.20;1.00
318;DHT22;146;53.448;10.228;2023-12-20T11:57:39;6.10;1.00
318;DHT22;146;53.448;10.228;2023-12-20T12:00:08;6.20;1.00
318;DHT22;146;53.448;10.228;2023-12-20T12:02:34;6.20;1.00
318;DHT22;146;53.448;10.228;2023-12-20T12:05:02;6.30;1.00
318;DHT22;146;53.448;10.228;2023-12-20T12:07:30;6.20;1.00
318;DHT22;146;53.448;10.228;2023-12-20T12:09:57;6.10;1.00
318;DHT22;146;53.448;10.228;2023-12-20T12:12:24;6.20;1.00
318;DHT22;146;53.448;10.228;2023-12-20T12:14:53;6.30;1.00
318;DHT22;146;53.448;10.228;2023-12-20T12:17:21;6.30;1.00
318;DHT22;146;53.448;10.228;2023-12-20T12:25:15;6.10;1.00
318;DHT22;146;53.448;10.228;2023-12-20T12:27:58;6.10;1.00
318;DHT22;146;53.448;10.228;2023-12-20T12:30:25;6.20;1.00
318;DHT22;146;53.448;10.228;2023-12-20T12:32:55;6.10;1.00
318;DHT22;146;53.448;10.228;2023-12-20T12:35:22;6.10;1.00
318;DHT22;146;53.448;10.228;2023-12-20T12:37:49;6.10;1.00
318;DHT22;146;53.448;10.228;2023-12-20T12:40:16;6.10;1.00
318;DHT22;146;53.448;10.228;2023-12-20T12:42:45;6.10;1.00
318;DHT22;146;53.448;10.228;2023-12-20T12:45:14;6.10;1.00
318;DHT22;146;53.448;10.228;2023-12-20T12:47:42;6.10;1.00
318;DHT22;146;53.448;10.228;2023-12-20T12:50:12;6.20;1.00
318;DHT22;146;53.448;10.228;2023-12-20T12:52:39;6.20;1.00
318;DHT22;146;53.448;10.228;2023-12-20T12:55:06;6.20;1.00
318;DHT22;146;53.448;10.228;2023-12-20T12:57:36;6.30;1.00
318;DHT22;146;53.448;10.228;2023-12-20T13:00:04;6.30;1.00
318;DHT22;146;53.448;10.228;2023-12-20T13:02:33;6.30;1.00
318;DHT22;146;53.448;10.228;2023-12-20T13:05:00;6.30;1.00
318;DHT22;146;53.448;10.228;2023-12-20T13:07:29;6.40;1.00
318;DHT22;146;53.448;10.228;2023-12-20T13:10:05;6.40;1.00
318;DHT22;146;53.448;10.228;2023-12-20T13:12:34;6.50;1.00
318;DHT22;146;53.448;10.228;2023-12-20T13:15:01;6.50;1.00
318;DHT22;146;53.448;10.228;2023-12-20T13:17:29;6.60;1.00
318;DHT22;146;53.448;10.228;2023-12-20T13:19:56;6.50;1.00
318;DHT22;146;53.448;10.228;2023-12-20T13:22:32;6.50;1.00
318;DHT22;146;53.448;10.228;2023-12-20T13:24:58;6.50;1.00
318;DHT22;146;53.448;10.228;2023-12-20T13:27:26;6.40;1.00
318;DHT22;146;53.448;10.228;2023-12-20T13:29:53;6.40;1.00
318;DHT22;146;53.448;10.228;2023-12-20T13:32:20;6.40;1.00
318;DHT22;146;53.448;10.228;2023-12-20T13:34:47;6.40;1.00
318;DHT22;146;53.448;10.228;2023-12-20T13:37:14;6.30;1.00
318;DHT22;146;53.448;10.228;2023-12-20T13:39:42;6.30;1.00
318;DHT22;146;53.448;10.228;2023-12-20T13:42:09;6.30;1.00
318;DHT22;146;53.448;10.228;2023-12-20T13:44:36;6.20;1.00
318;DHT22;146;53.448;10.228;2023-12-20T13:47:03;6.20;1.00
318;DHT22;146;53.448;10.228;2023-12-20T13:49:32;6.20;1.00
318;DHT22;146;53.448;10.228;2023-12-20T13:52:04;6.10;1.00
318;DHT22;146;53.448;10.228;2023-12-20T13:54:31;6.20;1.00
318;DHT22;146;53.448;10.228;2023-12-20T13:56:59;6.20;1.00
318;DHT22;146;53.448;10.228;2023-12-20T13:59:26;6.20;1.00
318;DHT22;146;53.448;10.228;2023-12-20T14:01:52;6.20;1.00
318;DHT22;146;53.448;10.228;2023-12-20T14:04:25;6.20;1.00
318;DHT22;146;53.448;10.228;2023-12-20T14:06:52;6.10;1.00
318;DHT22;146;53.448;10.228;2023-12-20T14:09:25;6.10;1.00
318;DHT22;146;53.448;10.228;2023-12-20T14:11:52;6.20;1.00
318;DHT22;146;53.448;10.228;2023-12-20T14:14:22;6.20;1.00
318;DHT22;146;53.448;10.228;2023-12-20T14:16:58;6.20;1.00
318;DHT22;146;53.448;10.228;2023-12-20T14:19:24;6.20;1.00
318;DHT22;146;53.448;10.228;2023-12-20T14:21:54;6.30;1.00
318;DHT22;146;53.448;10.228;2023-12-20T14:24:21;6.20;1.00
318;DHT22;146;53.448;10.228;2023-12-20T14:26:51;6.20;1.00
318;DHT22;146;53.448;10.228;2023-12-20T14:29:17;6.30;1.00
318;DHT22;146;53.448;10.228;2023-12-20T14:31:52;6.30;1.00
318;DHT22;146;53.448;10.228;2023-12-20T14:34:19;6.30;1.00
318;DHT22;146;53.448;10.228;2023-12-20T14:36:49;6.30;1.00
318;DHT22;146;53.448;10.228;2023-12-20T14:39:22;6.10;1.00
318;DHT22;146;53.448;10.228;2023-12-20T14:42:00;6.10;1.00
318;DHT22;146;53.448;10.228;2023-12-20T14:44:33;6.20;1.00
318;DHT22;146;53.448;10.228;2023-12-20T14:47:01;6.20;1.00
318;DHT22;146;53.448;10.228;2023-12-20T14:49:31;6.20;1.00
318;DHT22;146;53.448;10.228;2023-12-20T14:51:58;6.20;1.00
318;DHT22;146;53.448;10.228;2023-12-20T14:54:25;6.20;1.00
318;DHT22;146;53.448;10.228;2023-12-20T14:56:52;6.20;1.00
318;DHT22;146;53.448;10.228;2023-12-20T14:59:19;6.20;1.00
318;DHT22;146;53.448;10.228;2023-12-20T15:01:46;6.10;1.00
318;DHT22;146;53.448;10.228;2023-12-20T15:04:14;6.10;1.00
318;DHT22;146;53.448;10.228;2023-12-20T15:06:41;6.10;1.00
318;DHT22;146;53.448;10.228;2023-12-20T15:09:09;6.10;1.00
318;DHT22;146;53.448;10.228;2023-12-20T15:11:35;6.00;1.00
318;DHT22;146;53.448;10.228;2023-12-20T15:14:02;6.00;1.00
318;DHT22;146;53.448;10.228;2023-12-20T15:16:29;5.80;1.00
318;DHT22;146;53.448;10.228;2023-12-20T15:18:56;5.90;1.00
318;DHT22;146;53.448;10.228;2023-12-20T15:21:27;5.70;1.00
318;DHT22;146;53.448;10.228;2023-12-20T15:23:57;5.80;1.00
318;DHT22;146;53.448;10.228;2023-12-20T15:26:31;5.80;1.00
318;DHT22;146;53.448;10.228;2023-12-20T15:28:58;5.90;1.00
318;DHT22;146;53.448;10.228;2023-12-20T15:31:26;5.80;1.00
318;DHT22;146;53.448;10.228;2023-12-20T15:33:53;5.80;1.00
318;DHT22;146;53.448;10.228;2023-12-20T15:36:20;5.80;1.00
318;DHT22;146;53.448;10.228;2023-12-20T15:38:48;5.80;1.00
318;DHT22;146;53.448;10.228;2023-12-20T15:41:17;5.80;1.00
318;DHT22;146;53.448;10.228;2023-12-20T15:43:45;5.80;1.00
318;DHT22;146;53.448;10.228;2023-12-20T15:46:12;5.80;1.00
318;DHT22;146;53.448;10.228;2023-12-20T15:48:38;5.80;1.00
318;DHT22;146;53.448;10.228;2023-12-20T15:51:06;5.80;1.00
318;DHT22;146;53.448;10.228;2023-12-20T15:53:33;5.80;1.00
318;DHT22;146;53.448;10.228;2023-12-20T15:56:01;5.80;1.00
318;DHT22;146;53.448;10.228;2023-12-20T15:58:29;5.90;1.00
318;DHT22;146;53.448;10.228;2023-12-20T16:00:56;5.90;1.00
318;DHT22;146;53.448;10.228;2023-12-20T16:03:26;5.80;1.00
318;DHT22;146;53.448;10.228;2023-12-20T16:05:53;5.70;1.00
318;DHT22;146;53.448;10.228;2023-12-20T16:08:20;5.70;1.00
318;DHT22;146;53.448;10.228;2023-12-20T16:10:47;5.70;1.00
318;DHT22;146;53.448;10.228;2023-12-20T16:13:18;5.70;1.00
318;DHT22;146;53.448;10.228;2023-12-20T16:15:45;5.60;1.00
318;DHT22;146;53.448;10.228;2023-12-20T16:18:12;5.60;1.00
318;DHT22;146;53.448;10.228;2023-12-20T16:20:39;5.70;1.00
318;DHT22;146;53.448;10.228;2023-12-20T16:23:06;5.60;1.00
318;DHT22;146;53.448;10.228;2023-12-20T16:25:33;5.60;1.00
318;DHT22;146;53.448;10.228;2023-12-20T16:28:07;5.60;1.00
318;DHT22;146;53.448;10.228;2023-12-20T16:30:35;5.60;1.00
318;DHT22;146;53.448;10.228;2023-12-20T16:33:02;5.60;1.00
318;DHT22;146;53.448;10.228;2023-12-20T16:35:29;5.60;1.00
318;DHT22;146;53.448;10.228;2023-12-20T16:37:56;5.60;1.00
318;DHT22;146;53.448;10.228;2023-12-20T16:40:23;5.60;1.00
318;DHT22;146;53.448;10.228;2023-12-20T16:42:50;5.70;1.00
318;DHT22;146;53.448;10.228;2023-12-20T16:45:20;5.70;1.00
318;DHT22;146;53.448;10.228;2023-12-20T16:47:48;5.60;1.00
318;DHT22;146;53.448;10.228;2023-12-20T16:50:16;5.70;1.00
318;DHT22;146;53.448;10.228;2023-12-20T16:52:42;5.80;1.00
318;DHT22;146;53.448;10.228;2023-12-20T16:55:14;5.80;1.00
318;DHT22;146;53.448;10.228;2023-12-20T16:57:41;5.90;1.00
318;DHT22;146;53.448;10.228;2023-12-20T17:00:08;5.90;1.00
318;DHT22;146;53.448;10.228;2023-12-20T17:02:35;5.90;1.00
318;DHT22;146;53.448;10.228;2023-12-20T17:05:03;6.00;1.00
318;DHT22;146;53.448;10.228;2023-12-20T17:07:30;6.00;1.00
318;DHT22;146;53.448;10.228;2023-12-20T17:09:57;6.10;1.00
318;DHT22;146;53.448;10.228;2023-12-20T17:12:26;6.10;1.00
318;DHT22;146;53.448;10.228;2023-12-20T17:14:56;6.10;1.00
318;DHT22;146;53.448;10.228;2023-12-20T17:17:25;6.10;1.00
318;DHT22;146;53.448;10.228;2023-12-20T17:19:52;6.10;1.00
318;DHT22;146;53.448;10.228;2023-12-20T17:22:21;6.10;1.00
318;DHT22;146;53.448;10.228;2023-12-20T17:24:48;6.00;1.00
318;DHT22;146;53.448;10.228;2023-12-20T17:27:15;5.90;1.00
318;DHT22;146;53.448;10.228;2023-12-20T17:29:41;5.90;1.00
318;DHT22;146;53.448;10.228;2023-12-20T17:32:11;5.90;1.00
318;DHT22;146;53.448;10.228;2023-12-20T17:34:38;5.90;1.00